createdAt,value
2018-11-06T00:01:22.054Z,14.53
2018-11-06T00:03:55.574Z,14.20
2018-11-06T00:06:23.353Z,14.53
2018-11-06T00:08:51.121Z,13.60
2018-11-06T00:11:18.750Z,13.63
2018-11-06T00:13:46.935Z,14.57
2018-11-06T00:16:14.688Z,14.03
2018-11-06T00:18:42.368Z,12.93
2018-11-06T00:21:10.367Z,14.43
2018-11-06T00:23:38.093Z,14.53
2018-11-06T00:26:05.795Z,13.60
2018-11-06T00:28:33.480Z,13.90
2018-11-06T00:31:01.252Z,13.57
2018-11-06T00:33:28.990Z,14.73
2018-11-06T00:35:56.679Z,14.10
2018-11-06T00:38:25.082Z,14.47
2018-11-06T00:40:52.894Z,13.37
2018-11-06T00:43:26.578Z,14.33
2018-11-06T00:46:00.322Z,13.23
2018-11-06T00:48:28.088Z,13.70
2018-11-06T00:50:56.754Z,15.67
2018-11-06T00:53:24.560Z,13.13
2018-11-06T00:55:52.314Z,16.60
2018-11-06T00:58:20.115Z,15.10
2018-11-06T01:00:47.746Z,15.77
2018-11-06T01:03:15.501Z,15.57
2018-11-06T01:05:43.233Z,15.53
2018-11-06T01:08:10.833Z,14.77
2018-11-06T01:10:38.430Z,14.63
2018-11-06T01:13:06.001Z,14.37
2018-11-06T01:15:33.940Z,14.97
2018-11-06T01:18:01.722Z,14.13
2018-11-06T01:20:29.457Z,15.50
2018-11-06T01:22:57.278Z,15.13
2018-11-06T01:25:25.324Z,16.07
2018-11-06T01:27:53.129Z,14.40
2018-11-06T01:30:20.832Z,15.33
2018-11-06T01:32:48.683Z,15.37
2018-11-06T01:35:16.908Z,16.27
2018-11-06T01:37:45.253Z,13.63
2018-11-06T01:40:14.124Z,15.07
2018-11-06T01:42:42.437Z,14.70
2018-11-06T01:45:11.789Z,16.27
2018-11-06T01:47:39.939Z,14.00
2018-11-06T01:50:09.819Z,14.67
2018-11-06T01:52:37.522Z,14.33
2018-11-06T01:55:05.714Z,14.77
2018-11-06T01:57:33.925Z,16.17
2018-11-06T02:00:01.683Z,13.83
2018-11-06T02:02:29.543Z,14.33
2018-11-06T02:04:57.390Z,14.03
2018-11-06T02:07:26.163Z,15.17
2018-11-06T02:09:53.856Z,14.00
2018-11-06T02:12:21.836Z,15.10
2018-11-06T02:14:49.535Z,13.67
2018-11-06T02:17:17.265Z,13.40
2018-11-06T02:19:45.108Z,14.73
2018-11-06T02:22:12.855Z,15.00
2018-11-06T02:24:40.853Z,13.90
2018-11-06T02:27:08.508Z,13.93
2018-11-06T02:29:36.304Z,13.90
2018-11-06T02:32:04.668Z,15.27
2018-11-06T02:34:32.776Z,14.93
2018-11-06T02:37:00.493Z,14.70
2018-11-06T02:39:28.157Z,15.40
2018-11-06T02:41:55.980Z,14.63
2018-11-06T02:44:23.734Z,14.50
2018-11-06T02:46:51.431Z,15.47
2018-11-06T02:49:19.163Z,15.70
2018-11-06T02:51:46.919Z,14.00
2018-11-06T02:54:14.531Z,15.37
2018-11-06T02:56:42.212Z,16.03
2018-11-06T02:59:10.052Z,14.47
2018-11-06T03:01:37.789Z,15.70
2018-11-06T03:04:05.505Z,14.97
2018-11-06T03:06:33.480Z,14.67
2018-11-06T03:09:01.114Z,14.67
2018-11-06T03:11:28.722Z,15.00
2018-11-06T03:13:56.527Z,15.40
2018-11-06T03:16:24.262Z,15.50
2018-11-06T03:18:51.927Z,15.40
2018-11-06T03:21:19.630Z,14.40
2018-11-06T03:23:47.259Z,15.03
2018-11-06T03:26:15.072Z,15.50
2018-11-06T03:28:42.745Z,16.50
2018-11-06T03:31:10.486Z,16.17
2018-11-06T03:33:38.116Z,15.80
2018-11-06T03:36:06.044Z,14.63
2018-11-06T03:38:33.774Z,15.20
2018-11-06T03:41:01.499Z,14.20
2018-11-06T03:43:29.360Z,13.27
2018-11-06T03:45:57.163Z,13.70
2018-11-06T03:48:24.821Z,13.43
2018-11-06T03:50:52.436Z,13.83
2018-11-06T03:53:20.075Z,14.60
2018-11-06T03:55:47.731Z,13.40
2018-11-06T03:58:15.477Z,14.13
2018-11-06T04:00:43.226Z,13.83
2018-11-06T04:03:11.151Z,13.00
2018-11-06T04:05:39.969Z,14.27
2018-11-06T04:08:07.777Z,15.00
2018-11-06T04:10:35.543Z,13.17
2018-11-06T04:13:03.261Z,13.87
2018-11-06T04:15:31.774Z,13.00
2018-11-06T04:17:59.566Z,13.03
2018-11-06T04:20:27.167Z,12.87
2018-11-06T04:22:55.381Z,13.50
2018-11-06T04:25:23.066Z,13.87
2018-11-06T04:27:51.729Z,12.90
2018-11-06T04:30:20.391Z,12.83
2018-11-06T04:32:48.087Z,14.70
2018-11-06T04:35:15.764Z,13.07
2018-11-06T04:37:43.451Z,42.50
2018-11-06T04:40:13.974Z,42.73
2018-11-06T04:42:41.715Z,41.77
2018-11-06T04:45:10.417Z,33.37
2018-11-06T04:47:38.040Z,32.20
2018-11-06T04:50:06.719Z,23.93
2018-11-06T04:52:35.392Z,20.97
2018-11-06T04:55:03.272Z,17.40
2018-11-06T04:57:31.041Z,15.80
2018-11-06T04:59:58.678Z,14.00
2018-11-06T05:02:26.443Z,12.73
2018-11-06T05:04:54.043Z,12.43
2018-11-06T05:07:21.730Z,13.57
2018-11-06T05:09:49.585Z,12.80
2018-11-06T05:12:17.319Z,13.17
2018-11-06T05:14:45.060Z,13.20
2018-11-06T05:17:12.909Z,13.30
2018-11-06T05:19:40.793Z,11.97
2018-11-06T05:22:08.580Z,11.40
2018-11-06T05:24:36.499Z,13.37
2018-11-06T05:27:04.729Z,13.50
2018-11-06T05:29:32.794Z,13.60
2018-11-06T05:32:00.733Z,23.30
2018-11-06T05:34:28.490Z,37.40
2018-11-06T05:36:56.097Z,31.00
2018-11-06T05:39:23.797Z,24.27
2018-11-06T05:41:52.238Z,19.57
2018-11-06T05:44:20.060Z,17.37
2018-11-06T05:46:47.760Z,16.27
2018-11-06T05:49:16.059Z,14.87
2018-11-06T05:51:43.716Z,14.70
2018-11-06T05:54:11.425Z,14.83
2018-11-06T05:56:39.283Z,13.93
2018-11-06T05:59:06.931Z,13.00
2018-11-06T06:01:34.599Z,13.83
2018-11-06T06:04:02.540Z,13.77
2018-11-06T06:06:30.393Z,12.53
2018-11-06T06:08:58.187Z,13.07
2018-11-06T06:11:26.001Z,18.30
2018-11-06T06:13:53.728Z,36.77
2018-11-06T06:16:21.399Z,27.60
2018-11-06T06:18:49.126Z,21.57
2018-11-06T06:21:16.712Z,16.50
2018-11-06T06:23:44.547Z,16.97
2018-11-06T06:26:12.135Z,13.33
2018-11-06T06:28:39.780Z,13.33
2018-11-06T06:31:07.624Z,13.50
2018-11-06T06:33:35.247Z,13.70
2018-11-06T06:36:03.260Z,13.33
2018-11-06T06:38:31.062Z,13.17
2018-11-06T06:40:58.855Z,14.57
2018-11-06T06:43:26.554Z,13.20
2018-11-06T06:45:54.406Z,13.77
2018-11-06T06:48:22.129Z,14.30
2018-11-06T06:50:49.846Z,12.90
2018-11-06T06:53:17.565Z,13.33
2018-11-06T06:55:45.302Z,13.47
2018-11-06T06:58:13.796Z,13.67
2018-11-06T07:00:41.372Z,53.67
2018-11-06T07:03:09.186Z,63.77
2018-11-06T07:05:36.934Z,38.90
2018-11-06T07:08:04.936Z,27.13
2018-11-06T07:10:33.180Z,20.03
2018-11-06T07:13:01.320Z,17.27
2018-11-06T07:15:29.402Z,15.03
2018-11-06T07:17:57.297Z,14.13
2018-11-06T07:20:25.627Z,12.97
2018-11-06T07:22:53.593Z,13.83
2018-11-06T07:25:21.324Z,13.30
2018-11-06T07:27:49.116Z,12.77
2018-11-06T07:30:18.939Z,12.57
2018-11-06T07:32:46.978Z,12.37
2018-11-06T07:35:15.420Z,10.80
2018-11-06T07:37:43.422Z,12.70
2018-11-06T07:40:12.237Z,10.53
2018-11-06T07:42:40.107Z,12.00
2018-11-06T07:45:09.718Z,12.23
2018-11-06T07:47:37.399Z,12.30
2018-11-06T07:50:07.364Z,12.63
2018-11-06T07:52:35.509Z,11.03
2018-11-06T07:55:03.693Z,11.53
2018-11-06T07:57:32.393Z,11.20
2018-11-06T08:00:00.428Z,13.37
2018-11-06T08:02:28.420Z,12.70
2018-11-06T08:04:56.309Z,12.50
2018-11-06T08:07:24.284Z,13.27
2018-11-06T08:09:52.202Z,60.77
2018-11-06T08:12:20.359Z,64.00
2018-11-06T08:14:48.129Z,47.37
2018-11-06T08:17:16.081Z,33.67
2018-11-06T08:19:44.027Z,25.33
2018-11-06T08:22:12.335Z,21.20
2018-11-06T08:24:40.342Z,16.40
2018-11-06T08:27:08.231Z,15.63
2018-11-06T08:29:36.200Z,14.83
2018-11-06T08:32:04.939Z,13.83
2018-11-06T08:34:32.237Z,12.83
2018-11-06T08:37:00.085Z,11.33
2018-11-06T08:39:28.011Z,20.37
2018-11-06T08:41:55.992Z,19.47
2018-11-06T08:44:23.710Z,17.97
2018-11-06T08:46:51.487Z,16.83
2018-11-06T08:49:19.270Z,15.90
2018-11-06T08:51:47.059Z,14.13
2018-11-06T08:54:14.753Z,13.73
2018-11-06T08:56:42.532Z,12.10
2018-11-06T08:59:10.379Z,12.47
2018-11-06T09:01:38.111Z,11.30
2018-11-06T09:04:06.241Z,14.13
2018-11-06T09:06:34.254Z,10.73
2018-11-06T09:09:02.126Z,12.33
2018-11-06T09:11:29.916Z,11.57
2018-11-06T09:13:57.898Z,11.30
2018-11-06T09:16:25.536Z,11.57
2018-11-06T09:18:53.503Z,10.40
2018-11-06T09:21:21.346Z,10.20
2018-11-06T09:23:49.571Z,9.33
2018-11-06T09:26:18.023Z,9.23
2018-11-06T09:28:45.815Z,8.00
2018-11-06T09:31:13.873Z,7.17
2018-11-06T09:33:42.464Z,7.53
2018-11-06T09:36:10.312Z,8.50
2018-11-06T09:38:38.009Z,17.77
2018-11-06T09:41:06.291Z,16.00
2018-11-06T09:43:34.542Z,15.60
2018-11-06T09:46:02.574Z,12.63
2018-11-06T09:48:30.323Z,12.23
2018-11-06T09:50:58.077Z,11.00
2018-11-06T09:53:25.972Z,9.03
2018-11-06T09:55:53.711Z,11.50
2018-11-06T09:58:21.449Z,16.90
2018-11-06T10:00:49.197Z,19.87
2018-11-06T10:03:17.176Z,18.10
2018-11-06T10:05:45.692Z,15.60
2018-11-06T10:08:13.681Z,13.50
2018-11-06T10:10:41.516Z,12.37
2018-11-06T10:13:09.337Z,11.83
2018-11-06T10:15:37.543Z,12.07
2018-11-06T10:18:06.141Z,9.60
2018-11-06T10:20:34.229Z,9.60
2018-11-06T10:23:02.820Z,9.60
2018-11-06T10:25:30.640Z,8.03
2018-11-06T10:27:58.860Z,7.30
2018-11-06T10:30:26.794Z,7.70
2018-11-06T10:32:55.766Z,21.70
2018-11-06T10:35:23.543Z,21.03
2018-11-06T10:37:51.242Z,17.27
2018-11-06T10:40:20.749Z,16.23
2018-11-06T10:42:48.721Z,13.60
2018-11-06T10:45:17.167Z,11.60
2018-11-06T10:47:45.328Z,11.03
2018-11-06T10:50:14.092Z,10.27
2018-11-06T10:52:42.272Z,9.50
2018-11-06T10:55:10.309Z,8.40
2018-11-06T10:57:39.358Z,8.80
2018-11-06T11:00:16.048Z,7.73
2018-11-06T11:02:49.605Z,7.50
2018-11-06T11:05:18.211Z,7.97
2018-11-06T11:07:46.497Z,8.37
2018-11-06T11:10:14.358Z,7.30
2018-11-06T11:12:42.550Z,8.33
2018-11-06T11:15:10.313Z,7.47
2018-11-06T11:17:38.828Z,7.47
2018-11-06T11:20:09.587Z,6.63
2018-11-06T11:22:38.099Z,7.37
2018-11-06T11:25:07.165Z,6.80
2018-11-06T11:27:34.894Z,6.00
2018-11-06T11:30:03.200Z,7.50
2018-11-06T11:32:31.515Z,6.00
2018-11-06T11:34:59.279Z,6.47
2018-11-06T11:37:27.077Z,5.67
2018-11-06T11:39:55.134Z,5.90
2018-11-06T11:42:23.116Z,20.50
2018-11-06T11:44:51.255Z,26.00
2018-11-06T11:47:19.315Z,16.63
2018-11-06T11:49:47.561Z,12.07
2018-11-06T11:52:15.618Z,9.73
2018-11-06T11:54:43.766Z,8.80
2018-11-06T11:57:12.550Z,7.13
2018-11-06T11:59:41.117Z,7.10
2018-11-06T12:02:08.888Z,6.80
2018-11-06T12:04:36.993Z,6.00
2018-11-06T12:07:04.947Z,6.13
2018-11-06T12:09:33.282Z,4.87
2018-11-06T12:12:01.791Z,7.07
2018-11-06T12:14:30.279Z,5.00
2018-11-06T12:16:58.328Z,4.90
2018-11-06T12:19:26.453Z,5.73
2018-11-06T12:21:54.376Z,6.80
2018-11-06T12:24:22.819Z,5.17
2018-11-06T12:26:51.575Z,5.40
2018-11-06T12:29:19.501Z,6.40
2018-11-06T12:31:47.438Z,5.90
2018-11-06T12:34:15.291Z,6.80
2018-11-06T12:36:43.203Z,6.23
2018-11-06T12:39:11.986Z,5.33
2018-11-06T12:41:40.457Z,5.17
2018-11-06T12:44:08.658Z,5.67
2018-11-06T12:46:36.780Z,4.70
2018-11-06T12:49:05.098Z,4.70
2018-11-06T12:51:33.171Z,5.37
2018-11-06T12:54:01.350Z,5.17
2018-11-06T12:56:29.484Z,5.17
2018-11-06T12:58:57.792Z,5.73
2018-11-06T13:01:25.859Z,5.17
2018-11-06T13:03:53.919Z,9.07
2018-11-06T13:06:22.072Z,21.03
2018-11-06T13:08:50.153Z,18.63
2018-11-06T13:11:18.567Z,14.77
2018-11-06T13:13:46.605Z,11.43
2018-11-06T13:16:15.252Z,10.00
2018-11-06T13:18:43.210Z,9.20
2018-11-06T13:21:11.154Z,8.17
2018-11-06T13:23:38.904Z,9.70
2018-11-06T13:26:06.845Z,6.70
2018-11-06T13:28:35.113Z,14.10
2018-11-06T13:31:03.053Z,17.70
2018-11-06T13:33:31.143Z,16.03
2018-11-06T13:35:59.270Z,17.40
2018-11-06T13:38:27.143Z,48.37
2018-11-06T13:40:55.344Z,13.80
2018-11-06T13:43:23.303Z,9.87
2018-11-06T13:45:51.717Z,9.20
2018-11-06T13:48:19.674Z,7.57
2018-11-06T13:50:47.629Z,7.13
2018-11-06T13:53:15.845Z,5.80
2018-11-06T13:55:43.806Z,6.10
2018-11-06T13:58:12.376Z,4.97
2018-11-06T14:00:40.616Z,5.40
2018-11-06T14:03:08.424Z,5.33
2018-11-06T14:05:36.794Z,4.33
2018-11-06T14:08:06.613Z,4.40
2018-11-06T14:10:34.754Z,4.93
2018-11-06T14:13:02.924Z,4.67
2018-11-06T14:15:31.415Z,5.53
2018-11-06T14:17:59.283Z,5.17
2018-11-06T14:20:27.323Z,5.50
2018-11-06T14:22:55.295Z,5.20
2018-11-06T14:25:23.164Z,5.93
2018-11-06T14:27:51.424Z,4.73
2018-11-06T14:30:20.173Z,4.23
2018-11-06T14:32:48.236Z,4.00
2018-11-06T14:35:17.365Z,4.87
2018-11-06T14:37:46.061Z,4.60
2018-11-06T14:40:14.588Z,4.20
2018-11-06T14:42:43.902Z,3.77
2018-11-06T14:45:13.231Z,4.07
2018-11-06T14:47:41.456Z,4.20
2018-11-06T14:50:10.237Z,3.80
2018-11-06T14:52:39.404Z,3.87
2018-11-06T14:55:08.833Z,3.30
2018-11-06T14:57:37.230Z,3.63
2018-11-06T15:00:08.002Z,3.20
2018-11-06T15:02:35.787Z,4.00
2018-11-06T15:05:05.054Z,8.17
2018-11-06T15:07:32.825Z,7.70
2018-11-06T15:10:01.843Z,6.73
2018-11-06T15:12:29.785Z,7.57
2018-11-06T15:14:58.268Z,5.70
2018-11-06T15:17:26.188Z,5.70
2018-11-06T15:19:54.542Z,4.80
2018-11-06T15:22:22.437Z,4.70
2018-11-06T15:24:50.584Z,4.20
2018-11-06T15:27:18.600Z,4.23
2018-11-06T15:29:46.361Z,4.70
2018-11-06T15:32:14.301Z,4.27
2018-11-06T15:34:42.138Z,4.90
2018-11-06T15:37:09.987Z,9.27
2018-11-06T15:39:37.902Z,12.13
2018-11-06T15:42:05.973Z,11.20
2018-11-06T15:44:33.859Z,9.23
2018-11-06T15:47:01.530Z,8.70
2018-11-06T15:49:29.957Z,6.83
2018-11-06T15:51:57.982Z,7.57
2018-11-06T15:54:25.598Z,6.00
2018-11-06T15:56:53.851Z,5.53
2018-11-06T15:59:21.748Z,6.57
2018-11-06T16:01:49.679Z,5.03
2018-11-06T16:04:17.641Z,5.60
2018-11-06T16:06:45.633Z,5.87
2018-11-06T16:09:13.291Z,5.07
2018-11-06T16:11:41.538Z,5.40
2018-11-06T16:14:09.486Z,5.17
2018-11-06T16:16:37.746Z,5.13
2018-11-06T16:19:05.568Z,5.23
2018-11-06T16:21:34.219Z,4.73
2018-11-06T16:24:09.305Z,4.87
2018-11-06T16:26:39.353Z,4.90
2018-11-06T16:29:07.262Z,5.07
2018-11-06T16:31:35.665Z,5.50
2018-11-06T16:34:03.769Z,5.80
2018-11-06T16:36:31.677Z,5.17
2018-11-06T16:38:59.440Z,6.17
2018-11-06T16:41:27.415Z,17.73
2018-11-06T16:43:55.189Z,13.57
2018-11-06T16:46:23.123Z,11.30
2018-11-06T16:48:50.984Z,14.93
2018-11-06T16:51:18.954Z,12.73
2018-11-06T16:53:46.859Z,10.90
2018-11-06T16:56:14.810Z,9.77
2018-11-06T16:58:42.565Z,8.50
2018-11-06T17:01:11.702Z,7.63
2018-11-06T17:03:39.635Z,6.63
2018-11-06T17:06:13.291Z,8.20
2018-11-06T17:08:41.175Z,7.67
2018-11-06T17:11:08.841Z,7.10
2018-11-06T17:13:36.861Z,7.63
2018-11-06T17:16:06.144Z,6.67
2018-11-06T17:18:33.928Z,6.80
2018-11-06T17:21:01.669Z,7.00
2018-11-06T17:23:29.791Z,6.03
2018-11-06T17:25:58.227Z,7.17
2018-11-06T17:28:26.042Z,6.03
2018-11-06T17:30:53.749Z,6.53
2018-11-06T17:33:21.720Z,5.43
2018-11-06T17:35:49.556Z,6.43
2018-11-06T17:38:17.271Z,5.47
2018-11-06T17:40:45.657Z,6.37
2018-11-06T17:43:13.601Z,5.77
2018-11-06T17:45:41.273Z,4.87
2018-11-06T17:48:09.125Z,5.80
2018-11-06T17:50:36.810Z,6.10
2018-11-06T17:53:05.105Z,6.13
2018-11-06T17:55:32.906Z,6.20
2018-11-06T17:58:00.840Z,7.50
2018-11-06T18:00:28.753Z,9.50
2018-11-06T18:02:56.494Z,17.10
2018-11-06T18:05:25.108Z,12.60
2018-11-06T18:07:52.998Z,11.40
2018-11-06T18:10:21.228Z,8.77
2018-11-06T18:12:48.933Z,7.70
2018-11-06T18:15:17.115Z,7.57
2018-11-06T18:17:45.374Z,7.40
2018-11-06T18:20:13.940Z,6.80
2018-11-06T18:22:42.742Z,6.77
2018-11-06T18:25:11.421Z,6.10
2018-11-06T18:27:39.054Z,6.43
2018-11-06T18:30:10.881Z,6.70
2018-11-06T18:32:38.817Z,7.47
2018-11-06T18:35:07.843Z,6.50
2018-11-06T18:37:35.574Z,6.97
2018-11-06T18:40:03.982Z,7.53
2018-11-06T18:42:31.829Z,6.83
2018-11-06T18:44:59.568Z,7.13
2018-11-06T18:47:27.325Z,6.80
2018-11-06T18:49:55.196Z,6.87
2018-11-06T18:52:22.831Z,7.70
2018-11-06T18:54:50.932Z,7.60
2018-11-06T18:57:18.771Z,6.90
2018-11-06T18:59:46.431Z,7.20
2018-11-06T19:02:14.024Z,7.47
2018-11-06T19:04:41.963Z,6.73
2018-11-06T19:07:09.967Z,7.57
2018-11-06T19:09:37.989Z,7.13
2018-11-06T19:12:05.799Z,7.30
2018-11-06T19:14:33.515Z,7.70
2018-11-06T19:17:01.658Z,9.03
2018-11-06T19:19:29.618Z,9.97
2018-11-06T19:21:57.580Z,9.03
2018-11-06T19:24:25.633Z,7.70
2018-11-06T19:26:53.717Z,7.53
2018-11-06T19:29:21.686Z,8.93
2018-11-06T19:31:49.750Z,10.80
2018-11-06T19:34:17.792Z,9.63
2018-11-06T19:36:45.577Z,8.87
2018-11-06T19:39:13.599Z,9.00
2018-11-06T19:41:42.017Z,8.00
2018-11-06T19:44:09.950Z,8.30
2018-11-06T19:46:37.738Z,8.40
2018-11-06T19:49:05.534Z,7.60
2018-11-06T19:51:33.587Z,8.97
2018-11-06T19:54:01.924Z,7.17
2018-11-06T19:56:29.622Z,8.10
2018-11-06T19:58:57.700Z,9.33
2018-11-06T20:01:25.557Z,8.30
2018-11-06T20:03:53.618Z,10.53
2018-11-06T20:06:21.291Z,8.93
2018-11-06T20:08:49.215Z,7.63
2018-11-06T20:11:17.038Z,8.70
2018-11-06T20:13:45.038Z,7.87
2018-11-06T20:16:12.825Z,6.60
2018-11-06T20:18:40.826Z,7.37
2018-11-06T20:21:08.820Z,7.93
2018-11-06T20:23:37.383Z,7.03
2018-11-06T20:26:05.336Z,7.80
2018-11-06T20:28:33.303Z,7.13
2018-11-06T20:31:01.447Z,7.53
2018-11-06T20:33:29.870Z,7.03
2018-11-06T20:35:57.521Z,6.40
2018-11-06T20:38:26.612Z,7.80
2018-11-06T20:40:54.791Z,7.67
2018-11-06T20:43:22.571Z,6.80
2018-11-06T20:45:50.264Z,7.30
2018-11-06T20:48:18.109Z,7.07
2018-11-06T20:50:46.337Z,7.50
2018-11-06T20:53:14.648Z,7.20
2018-11-06T20:55:42.732Z,7.97
2018-11-06T20:58:11.539Z,8.47
2018-11-06T21:00:39.952Z,8.37
2018-11-06T21:03:08.424Z,6.30
2018-11-06T21:05:36.812Z,8.10
2018-11-06T21:08:05.192Z,6.73
2018-11-06T21:10:33.259Z,7.63
2018-11-06T21:13:00.885Z,7.57
2018-11-06T21:15:28.644Z,7.60
2018-11-06T21:17:56.325Z,8.17
2018-11-06T21:20:24.594Z,7.73
2018-11-06T21:22:52.421Z,7.23
2018-11-06T21:25:20.887Z,7.97
2018-11-06T21:27:49.390Z,7.70
2018-11-06T21:30:19.426Z,7.27
2018-11-06T21:32:48.463Z,12.97
2018-11-06T21:35:16.628Z,13.17
2018-11-06T21:37:44.722Z,11.57
2018-11-06T21:40:14.253Z,9.90
2018-11-06T21:42:42.493Z,9.40
2018-11-06T21:45:11.496Z,8.63
2018-11-06T21:47:39.906Z,9.03
2018-11-06T21:50:09.748Z,7.90
2018-11-06T21:52:37.802Z,7.10
2018-11-06T21:55:07.073Z,7.60
2018-11-06T21:57:35.117Z,7.07
2018-11-06T22:00:03.236Z,7.70
2018-11-06T22:02:31.070Z,7.20
2018-11-06T22:04:58.721Z,8.23
2018-11-06T22:07:26.368Z,7.87
2018-11-06T22:09:54.095Z,8.00
2018-11-06T22:12:21.710Z,6.90
2018-11-06T22:14:49.380Z,8.03
2018-11-06T22:17:17.153Z,7.63
2018-11-06T22:19:44.795Z,7.67
2018-11-06T22:22:12.598Z,8.50
2018-11-06T22:24:40.563Z,7.90
2018-11-06T22:27:09.114Z,7.70
2018-11-06T22:29:36.932Z,8.50
2018-11-06T22:32:05.115Z,8.73
2018-11-06T22:34:33.355Z,9.10
2018-11-06T22:37:01.471Z,8.50
2018-11-06T22:39:29.371Z,7.67
2018-11-06T22:41:57.162Z,7.83
2018-11-06T22:44:24.991Z,8.10
2018-11-06T22:46:52.715Z,7.30
2018-11-06T22:49:20.324Z,8.63
2018-11-06T22:51:48.120Z,7.60
2018-11-06T22:54:15.785Z,7.87
2018-11-06T22:56:43.641Z,8.00
2018-11-06T22:59:11.788Z,7.97
2018-11-06T23:01:39.513Z,8.17
2018-11-06T23:04:07.559Z,8.10
2018-11-06T23:06:35.241Z,7.50
2018-11-06T23:09:03.960Z,7.73
2018-11-06T23:11:31.658Z,8.33
2018-11-06T23:13:59.347Z,8.50
2018-11-06T23:16:27.033Z,7.50
2018-11-06T23:18:55.041Z,7.63
2018-11-06T23:21:22.778Z,7.47
2018-11-06T23:23:50.350Z,6.90
2018-11-06T23:26:18.065Z,8.97
2018-11-06T23:28:45.939Z,8.17
2018-11-06T23:31:13.851Z,8.33
2018-11-06T23:33:41.760Z,8.20
2018-11-06T23:36:09.401Z,8.23
2018-11-06T23:38:37.039Z,8.20
2018-11-06T23:41:05.290Z,9.17
2018-11-06T23:43:33.975Z,8.10
2018-11-06T23:46:01.601Z,7.90
2018-11-06T23:48:29.264Z,8.20
2018-11-06T23:50:56.921Z,8.83
2018-11-06T23:53:24.601Z,8.30
2018-11-06T23:55:52.298Z,8.90
2018-11-06T23:58:20.011Z,7.97
